Terminal Aerodrome Forecast
Issued by NWS Sterling, VA

Home | Current Version | Previous Version | Text Only | Print | Product List | Glossary On
Versions: 1 2 3 4 5 6 7 8 9 10 11 12 13 14 15 16 17 18 19 20 21 22 23 24 25 26 27 28 29
000
FTUS41 KLWX 050810 AAA
TAFDCA
TAF AMD
KDCA 050810Z 0508/0606 VRB03KT 3SM BR SCT015 SCT200
     FM050930 VRB03KT 2SM BR BKN200
     FM051200 08005KT P6SM SCT200
     FM052100 13005KT P6SM BKN050=

USA.gov is the U.S. government's official web portal to all federal, state and local government web resources and services.